sensor_id;sensor_type;location;lat;lon;timestamp;P1;durP1;ratioP1;P2;durP2;ratioP2
66619;SDS011;53484;51.356;6.732;2023-02-28T00:00:03;10.48;;;5.30;;
66619;SDS011;53484;51.356;6.732;2023-02-28T00:02:34;11.97;;;5.97;;
66619;SDS011;53484;51.356;6.732;2023-02-28T00:05:01;10.07;;;5.70;;
66619;SDS011;53484;51.356;6.732;2023-02-28T00:07:29;14.80;;;6.22;;
66619;SDS011;53484;51.356;6.732;2023-02-28T00:09:55;12.02;;;6.25;;
66619;SDS011;53484;51.356;6.732;2023-02-28T00:12:22;11.07;;;5.27;;
66619;SDS011;53484;51.356;6.732;2023-02-28T00:14:48;11.90;;;6.05;;
66619;SDS011;53484;51.356;6.732;2023-02-28T00:17:15;14.30;;;5.85;;
66619;SDS011;53484;51.356;6.732;2023-02-28T00:19:42;16.83;;;6.78;;
66619;SDS011;53484;51.356;6.732;2023-02-28T00:22:09;11.85;;;6.10;;
66619;SDS011;53484;51.356;6.732;2023-02-28T00:24:36;10.33;;;5.57;;
66619;SDS011;53484;51.356;6.732;2023-02-28T00:27:03;11.68;;;5.50;;
66619;SDS011;53484;51.356;6.732;2023-02-28T00:29:29;12.13;;;5.95;;
66619;SDS011;53484;51.356;6.732;2023-02-28T00:31:56;11.25;;;5.43;;
66619;SDS011;53484;51.356;6.732;2023-02-28T00:34:22;12.33;;;5.63;;
66619;SDS011;53484;51.356;6.732;2023-02-28T00:36:48;14.00;;;6.13;;
66619;SDS011;53484;51.356;6.732;2023-02-28T00:39:15;11.80;;;5.60;;
66619;SDS011;53484;51.356;6.732;2023-02-28T00:41:42;11.57;;;5.53;;
66619;SDS011;53484;51.356;6.732;2023-02-28T00:44:09;12.25;;;5.63;;
66619;SDS011;53484;51.356;6.732;2023-02-28T00:46:35;19.40;;;5.93;;
66619;SDS011;53484;51.356;6.732;2023-02-28T00:49:01;15.95;;;7.05;;
66619;SDS011;53484;51.356;6.732;2023-02-28T00:51:27;13.32;;;6.10;;
66619;SDS011;53484;51.356;6.732;2023-02-28T00:53:54;11.40;;;5.32;;
66619;SDS011;53484;51.356;6.732;2023-02-28T00:56:20;13.35;;;6.30;;
66619;SDS011;53484;51.356;6.732;2023-02-28T00:58:47;11.13;;;5.85;;
66619;SDS011;53484;51.356;6.732;2023-02-28T01:01:14;13.18;;;5.78;;
66619;SDS011;53484;51.356;6.732;2023-02-28T01:03:40;13.77;;;5.60;;
66619;SDS011;53484;51.356;6.732;2023-02-28T01:06:07;12.68;;;5.50;;
66619;SDS011;53484;51.356;6.732;2023-02-28T01:08:33;9.40;;;4.93;;
66619;SDS011;53484;51.356;6.732;2023-02-28T01:11:06;10.48;;;4.75;;
66619;SDS011;53484;51.356;6.732;2023-02-28T01:13:32;9.63;;;5.43;;
66619;SDS011;53484;51.356;6.732;2023-02-28T01:16:00;13.07;;;5.93;;
66619;SDS011;53484;51.356;6.732;2023-02-28T01:18:26;11.73;;;5.40;;
66619;SDS011;53484;51.356;6.732;2023-02-28T01:20:53;10.45;;;4.80;;
66619;SDS011;53484;51.356;6.732;2023-02-28T01:23:20;14.05;;;5.50;;
66619;SDS011;53484;51.356;6.732;2023-02-28T01:25:46;11.43;;;5.13;;
66619;SDS011;53484;51.356;6.732;2023-02-28T01:28:12;10.47;;;4.87;;
66619;SDS011;53484;51.356;6.732;2023-02-28T01:30:39;13.98;;;5.05;;
66619;SDS011;53484;51.356;6.732;2023-02-28T01:33:06;11.50;;;5.40;;
66619;SDS011;53484;51.356;6.732;2023-02-28T01:35:33;10.32;;;5.03;;
66619;SDS011;53484;51.356;6.732;2023-02-28T01:37:59;12.50;;;5.47;;
66619;SDS011;53484;51.356;6.732;2023-02-28T01:40:26;10.20;;;4.90;;
66619;SDS011;53484;51.356;6.732;2023-02-28T01:42:52;9.93;;;4.82;;
66619;SDS011;53484;51.356;6.732;2023-02-28T01:45:20;10.18;;;5.03;;
66619;SDS011;53484;51.356;6.732;2023-02-28T01:47:49;11.57;;;4.90;;
66619;SDS011;53484;51.356;6.732;2023-02-28T01:50:18;9.15;;;4.60;;
66619;SDS011;53484;51.356;6.732;2023-02-28T01:52:45;11.95;;;5.40;;
66619;SDS011;53484;51.356;6.732;2023-02-28T01:55:12;12.23;;;4.75;;
66619;SDS011;53484;51.356;6.732;2023-02-28T01:57:39;8.90;;;4.60;;
66619;SDS011;53484;51.356;6.732;2023-02-28T02:00:08;13.00;;;5.00;;
66619;SDS011;53484;51.356;6.732;2023-02-28T02:02:35;9.63;;;4.85;;
66619;SDS011;53484;51.356;6.732;2023-02-28T02:05:03;10.43;;;4.88;;
66619;SDS011;53484;51.356;6.732;2023-02-28T02:07:31;9.87;;;5.13;;
66619;SDS011;53484;51.356;6.732;2023-02-28T02:10:00;10.55;;;5.22;;
66619;SDS011;53484;51.356;6.732;2023-02-28T02:12:29;12.15;;;4.68;;
66619;SDS011;53484;51.356;6.732;2023-02-28T02:15:00;9.23;;;4.80;;
66619;SDS011;53484;51.356;6.732;2023-02-28T02:17:30;9.70;;;4.60;;
66619;SDS011;53484;51.356;6.732;2023-02-28T02:25:34;10.25;;;4.50;;
66619;SDS011;53484;51.356;6.732;2023-02-28T02:28:11;10.27;;;4.50;;
66619;SDS011;53484;51.356;6.732;2023-02-28T02:30:51;9.07;;;4.45;;
66619;SDS011;53484;51.356;6.732;2023-02-28T02:33:24;9.52;;;4.70;;
66619;SDS011;53484;51.356;6.732;2023-02-28T02:35:56;9.55;;;4.70;;
66619;SDS011;53484;51.356;6.732;2023-02-28T02:38:29;9.03;;;4.53;;
66619;SDS011;53484;51.356;6.732;2023-02-28T02:40:58;10.90;;;4.43;;
66619;SDS011;53484;51.356;6.732;2023-02-28T02:43:29;12.10;;;4.65;;
66619;SDS011;53484;51.356;6.732;2023-02-28T02:45:59;9.93;;;4.63;;
66619;SDS011;53484;51.356;6.732;2023-02-28T02:48:29;11.13;;;4.60;;
66619;SDS011;53484;51.356;6.732;2023-02-28T02:50:58;10.50;;;4.88;;
66619;SDS011;53484;51.356;6.732;2023-02-28T02:53:27;10.80;;;5.20;;
66619;SDS011;53484;51.356;6.732;2023-02-28T02:55:54;9.88;;;4.50;;
66619;SDS011;53484;51.356;6.732;2023-02-28T02:58:22;10.07;;;4.50;;
66619;SDS011;53484;51.356;6.732;2023-02-28T03:00:51;10.90;;;4.50;;
66619;SDS011;53484;51.356;6.732;2023-02-28T03:03:18;10.15;;;4.30;;
66619;SDS011;53484;51.356;6.732;2023-02-28T03:05:50;9.43;;;4.32;;
66619;SDS011;53484;51.356;6.732;2023-02-28T03:08:18;9.55;;;4.57;;
66619;SDS011;53484;51.356;6.732;2023-02-28T03:10:45;10.57;;;4.72;;
66619;SDS011;53484;51.356;6.732;2023-02-28T03:16:07;9.77;;;4.57;;
66619;SDS011;53484;51.356;6.732;2023-02-28T03:18:36;8.90;;;4.00;;
66619;SDS011;53484;51.356;6.732;2023-02-28T03:21:06;10.77;;;4.28;;
66619;SDS011;53484;51.356;6.732;2023-02-28T03:23:41;9.27;;;4.30;;
66619;SDS011;53484;51.356;6.732;2023-02-28T03:26:12;7.53;;;3.70;;
66619;SDS011;53484;51.356;6.732;2023-02-28T03:28:41;8.95;;;3.75;;
66619;SDS011;53484;51.356;6.732;2023-02-28T03:31:12;7.57;;;3.83;;
66619;SDS011;53484;51.356;6.732;2023-02-28T03:33:42;10.00;;;4.13;;
66619;SDS011;53484;51.356;6.732;2023-02-28T03:36:10;8.93;;;3.97;;
66619;SDS011;53484;51.356;6.732;2023-02-28T03:38:40;10.93;;;4.50;;
66619;SDS011;53484;51.356;6.732;2023-02-28T03:41:09;9.50;;;4.20;;
66619;SDS011;53484;51.356;6.732;2023-02-28T03:43:38;8.43;;;4.20;;
66619;SDS011;53484;51.356;6.732;2023-02-28T03:46:06;9.13;;;4.10;;
66619;SDS011;53484;51.356;6.732;2023-02-28T03:48:35;8.35;;;3.90;;
66619;SDS011;53484;51.356;6.732;2023-02-28T03:51:04;10.98;;;4.53;;
66619;SDS011;53484;51.356;6.732;2023-02-28T03:53:33;9.65;;;4.25;;
66619;SDS011;53484;51.356;6.732;2023-02-28T03:56:03;9.65;;;3.95;;
66619;SDS011;53484;51.356;6.732;2023-02-28T03:58:32;7.25;;;3.10;;
66619;SDS011;53484;51.356;6.732;2023-02-28T04:01:03;12.82;;;3.80;;
66619;SDS011;53484;51.356;6.732;2023-02-28T04:03:33;8.07;;;3.53;;
66619;SDS011;53484;51.356;6.732;2023-02-28T04:05:59;9.27;;;3.63;;
66619;SDS011;53484;51.356;6.732;2023-02-28T04:08:25;10.38;;;4.85;;
66619;SDS011;53484;51.356;6.732;2023-02-28T04:10:53;6.82;;;3.15;;
66619;SDS011;53484;51.356;6.732;2023-02-28T04:13:23;8.07;;;3.47;;
66619;SDS011;53484;51.356;6.732;2023-02-28T04:15:49;7.47;;;3.63;;
66619;SDS011;53484;51.356;6.732;2023-02-28T04:18:15;7.97;;;3.38;;
66619;SDS011;53484;51.356;6.732;2023-02-28T04:20:42;8.93;;;3.35;;
66619;SDS011;53484;51.356;6.732;2023-02-28T04:23:08;9.17;;;3.17;;
66619;SDS011;53484;51.356;6.732;2023-02-28T04:25:34;8.13;;;3.50;;
66619;SDS011;53484;51.356;6.732;2023-02-28T04:28:01;8.60;;;3.28;;
66619;SDS011;53484;51.356;6.732;2023-02-28T04:30:28;5.78;;;3.17;;
66619;SDS011;53484;51.356;6.732;2023-02-28T04:32:57;8.67;;;3.73;;
66619;SDS011;53484;51.356;6.732;2023-02-28T04:35:23;7.18;;;3.10;;
66619;SDS011;53484;51.356;6.732;2023-02-28T04:37:50;5.60;;;2.65;;
66619;SDS011;53484;51.356;6.732;2023-02-28T04:40:16;8.63;;;3.17;;
66619;SDS011;53484;51.356;6.732;2023-02-28T04:42:42;7.60;;;3.17;;
66619;SDS011;53484;51.356;6.732;2023-02-28T04:45:09;9.02;;;3.95;;
66619;SDS011;53484;51.356;6.732;2023-02-28T04:47:37;7.20;;;3.00;;
66619;SDS011;53484;51.356;6.732;2023-02-28T04:50:03;7.65;;;2.88;;
66619;SDS011;53484;51.356;6.732;2023-02-28T04:52:30;5.90;;;3.07;;
66619;SDS011;53484;51.356;6.732;2023-02-28T04:54:56;7.40;;;3.20;;
66619;SDS011;53484;51.356;6.732;2023-02-28T04:57:22;6.05;;;2.85;;
66619;SDS011;53484;51.356;6.732;2023-02-28T04:59:49;8.68;;;3.00;;
66619;SDS011;53484;51.356;6.732;2023-02-28T05:02:15;7.37;;;3.33;;
66619;SDS011;53484;51.356;6.732;2023-02-28T05:04:42;8.25;;;3.38;;
66619;SDS011;53484;51.356;6.732;2023-02-28T05:07:09;11.00;;;3.50;;
66619;SDS011;53484;51.356;6.732;2023-02-28T05:09:35;10.82;;;3.38;;
66619;SDS011;53484;51.356;6.732;2023-02-28T05:12:02;10.67;;;3.40;;
66619;SDS011;53484;51.356;6.732;2023-02-28T05:14:28;8.45;;;3.08;;
66619;SDS011;53484;51.356;6.732;2023-02-28T05:16:54;7.90;;;3.50;;
66619;SDS011;53484;51.356;6.732;2023-02-28T05:19:20;8.55;;;3.00;;
66619;SDS011;53484;51.356;6.732;2023-02-28T05:21:52;8.67;;;3.37;;
66619;SDS011;53484;51.356;6.732;2023-02-28T05:24:18;12.15;;;3.50;;
66619;SDS011;53484;51.356;6.732;2023-02-28T05:26:47;9.65;;;3.28;;
66619;SDS011;53484;51.356;6.732;2023-02-28T05:29:14;9.55;;;3.75;;
66619;SDS011;53484;51.356;6.732;2023-02-28T05:31:40;9.77;;;3.90;;
66619;SDS011;53484;51.356;6.732;2023-02-28T05:34:06;8.23;;;3.38;;
66619;SDS011;53484;51.356;6.732;2023-02-28T05:36:33;7.82;;;3.75;;
66619;SDS011;53484;51.356;6.732;2023-02-28T05:39:01;9.63;;;3.88;;
66619;SDS011;53484;51.356;6.732;2023-02-28T05:41:29;10.63;;;4.00;;
66619;SDS011;53484;51.356;6.732;2023-02-28T05:43:55;8.90;;;3.72;;
66619;SDS011;53484;51.356;6.732;2023-02-28T05:46:23;12.02;;;3.60;;
66619;SDS011;53484;51.356;6.732;2023-02-28T05:48:49;7.72;;;3.65;;
66619;SDS011;53484;51.356;6.732;2023-02-28T05:51:16;7.77;;;3.67;;
66619;SDS011;53484;51.356;6.732;2023-02-28T05:53:42;8.70;;;3.60;;
66619;SDS011;53484;51.356;6.732;2023-02-28T05:56:11;8.70;;;3.72;;
66619;SDS011;53484;51.356;6.732;2023-02-28T05:58:37;8.07;;;3.35;;
66619;SDS011;53484;51.356;6.732;2023-02-28T06:01:19;9.27;;;3.90;;
66619;SDS011;53484;51.356;6.732;2023-02-28T06:03:46;8.40;;;3.85;;
66619;SDS011;53484;51.356;6.732;2023-02-28T06:06:12;9.85;;;4.25;;
66619;SDS011;53484;51.356;6.732;2023-02-28T06:08:38;7.40;;;3.83;;
66619;SDS011;53484;51.356;6.732;2023-02-28T06:11:05;8.63;;;3.53;;
66619;SDS011;53484;51.356;6.732;2023-02-28T06:13:33;7.90;;;3.58;;
66619;SDS011;53484;51.356;6.732;2023-02-28T06:16:00;9.77;;;3.90;;
66619;SDS011;53484;51.356;6.732;2023-02-28T06:18:26;8.07;;;3.30;;
66619;SDS011;53484;51.356;6.732;2023-02-28T06:20:52;7.78;;;3.42;;
66619;SDS011;53484;51.356;6.732;2023-02-28T06:23:19;8.23;;;3.58;;
66619;SDS011;53484;51.356;6.732;2023-02-28T06:25:45;7.05;;;3.65;;
66619;SDS011;53484;51.356;6.732;2023-02-28T06:28:12;7.40;;;3.28;;
66619;SDS011;53484;51.356;6.732;2023-02-28T06:30:39;8.10;;;3.50;;
66619;SDS011;53484;51.356;6.732;2023-02-28T06:33:06;10.05;;;3.45;;
66619;SDS011;53484;51.356;6.732;2023-02-28T06:35:32;7.70;;;3.33;;
66619;SDS011;53484;51.356;6.732;2023-02-28T06:37:58;8.05;;;3.38;;
66619;SDS011;53484;51.356;6.732;2023-02-28T06:40:25;8.68;;;3.90;;
66619;SDS011;53484;51.356;6.732;2023-02-28T06:42:51;5.38;;;3.00;;
66619;SDS011;53484;51.356;6.732;2023-02-28T06:45:18;6.45;;;3.28;;
66619;SDS011;53484;51.356;6.732;2023-02-28T06:47:45;9.63;;;3.80;;
66619;SDS011;53484;51.356;6.732;2023-02-28T06:50:17;7.57;;;3.72;;
66619;SDS011;53484;51.356;6.732;2023-02-28T06:52:45;7.57;;;3.67;;
66619;SDS011;53484;51.356;6.732;2023-02-28T06:55:11;9.80;;;3.90;;
66619;SDS011;53484;51.356;6.732;2023-02-28T06:57:38;7.95;;;3.95;;
66619;SDS011;53484;51.356;6.732;2023-02-28T07:00:05;9.75;;;3.83;;
66619;SDS011;53484;51.356;6.732;2023-02-28T07:02:32;9.70;;;4.20;;
66619;SDS011;53484;51.356;6.732;2023-02-28T07:05:00;9.38;;;3.85;;
66619;SDS011;53484;51.356;6.732;2023-02-28T07:07:26;8.05;;;3.78;;
66619;SDS011;53484;51.356;6.732;2023-02-28T07:09:52;8.27;;;4.10;;
66619;SDS011;53484;51.356;6.732;2023-02-28T07:12:18;8.73;;;3.90;;
66619;SDS011;53484;51.356;6.732;2023-02-28T07:14:45;12.85;;;3.58;;
66619;SDS011;53484;51.356;6.732;2023-02-28T07:17:11;7.05;;;3.65;;
66619;SDS011;53484;51.356;6.732;2023-02-28T07:19:38;7.90;;;4.03;;
66619;SDS011;53484;51.356;6.732;2023-02-28T07:22:05;10.83;;;3.73;;
66619;SDS011;53484;51.356;6.732;2023-02-28T07:24:32;10.38;;;4.22;;
66619;SDS011;53484;51.356;6.732;2023-02-28T07:26:58;6.30;;;3.28;;
66619;SDS011;53484;51.356;6.732;2023-02-28T07:29:25;6.68;;;3.38;;
66619;SDS011;53484;51.356;6.732;2023-02-28T07:31:52;7.07;;;3.65;;
66619;SDS011;53484;51.356;6.732;2023-02-28T07:34:18;9.15;;;3.55;;
66619;SDS011;53484;51.356;6.732;2023-02-28T07:36:45;10.23;;;3.58;;
66619;SDS011;53484;51.356;6.732;2023-02-28T07:39:12;7.37;;;3.13;;
66619;SDS011;53484;51.356;6.732;2023-02-28T07:41:38;10.15;;;3.20;;
66619;SDS011;53484;51.356;6.732;2023-02-28T07:44:08;8.02;;;3.25;;
66619;SDS011;53484;51.356;6.732;2023-02-28T07:46:34;7.18;;;3.00;;
66619;SDS011;53484;51.356;6.732;2023-02-28T07:49:01;6.87;;;3.13;;
66619;SDS011;53484;51.356;6.732;2023-02-28T07:51:28;7.50;;;2.97;;
66619;SDS011;53484;51.356;6.732;2023-02-28T07:53:54;10.10;;;3.22;;
66619;SDS011;53484;51.356;6.732;2023-02-28T07:56:22;9.40;;;2.80;;
66619;SDS011;53484;51.356;6.732;2023-02-28T07:58:48;8.60;;;3.37;;
66619;SDS011;53484;51.356;6.732;2023-02-28T08:01:15;5.72;;;2.90;;
66619;SDS011;53484;51.356;6.732;2023-02-28T08:03:42;6.68;;;2.90;;
66619;SDS011;53484;51.356;6.732;2023-02-28T08:06:14;7.63;;;3.13;;
66619;SDS011;53484;51.356;6.732;2023-02-28T08:08:41;8.75;;;3.22;;
66619;SDS011;53484;51.356;6.732;2023-02-28T08:11:09;9.95;;;3.33;;
66619;SDS011;53484;51.356;6.732;2023-02-28T08:13:37;8.18;;;2.83;;
66619;SDS011;53484;51.356;6.732;2023-02-28T08:16:03;5.88;;;2.92;;
66619;SDS011;53484;51.356;6.732;2023-02-28T08:18:30;10.10;;;3.47;;
66619;SDS011;53484;51.356;6.732;2023-02-28T08:20:56;6.70;;;3.15;;
66619;SDS011;53484;51.356;6.732;2023-02-28T08:23:22;8.40;;;3.05;;
66619;SDS011;53484;51.356;6.732;2023-02-28T08:25:52;7.07;;;2.90;;
66619;SDS011;53484;51.356;6.732;2023-02-28T08:28:18;5.80;;;2.92;;
66619;SDS011;53484;51.356;6.732;2023-02-28T08:30:46;10.90;;;2.60;;
66619;SDS011;53484;51.356;6.732;2023-02-28T08:33:13;6.72;;;2.85;;
66619;SDS011;53484;51.356;6.732;2023-02-28T08:35:39;5.53;;;2.92;;
66619;SDS011;53484;51.356;6.732;2023-02-28T08:38:05;8.45;;;2.78;;
66619;SDS011;53484;51.356;6.732;2023-02-28T08:40:31;5.63;;;2.60;;
66619;SDS011;53484;51.356;6.732;2023-02-28T08:42:58;10.90;;;3.05;;
66619;SDS011;53484;51.356;6.732;2023-02-28T08:45:24;7.22;;;3.15;;
66619;SDS011;53484;51.356;6.732;2023-02-28T08:47:52;5.45;;;2.90;;
66619;SDS011;53484;51.356;6.732;2023-02-28T08:50:19;6.68;;;2.80;;
66619;SDS011;53484;51.356;6.732;2023-02-28T08:52:46;6.10;;;3.00;;
66619;SDS011;53484;51.356;6.732;2023-02-28T08:55:13;5.30;;;2.58;;
66619;SDS011;53484;51.356;6.732;2023-02-28T08:57:40;6.72;;;2.88;;
66619;SDS011;53484;51.356;6.732;2023-02-28T09:00:07;6.63;;;3.15;;
66619;SDS011;53484;51.356;6.732;2023-02-28T09:02:35;8.40;;;2.58;;
66619;SDS011;53484;51.356;6.732;2023-02-28T09:05:03;6.77;;;2.60;;
66619;SDS011;53484;51.356;6.732;2023-02-28T09:07:30;6.47;;;2.42;;
66619;SDS011;53484;51.356;6.732;2023-02-28T09:09:56;7.65;;;3.08;;
66619;SDS011;53484;51.356;6.732;2023-02-28T09:12:23;6.20;;;2.80;;
66619;SDS011;53484;51.356;6.732;2023-02-28T09:14:50;7.10;;;2.92;;
66619;SDS011;53484;51.356;6.732;2023-02-28T09:17:17;5.37;;;2.80;;
66619;SDS011;53484;51.356;6.732;2023-02-28T09:19:43;6.00;;;2.50;;
66619;SDS011;53484;51.356;6.732;2023-02-28T09:22:11;9.82;;;2.65;;
66619;SDS011;53484;51.356;6.732;2023-02-28T09:24:37;5.53;;;2.63;;
66619;SDS011;53484;51.356;6.732;2023-02-28T09:27:04;7.97;;;3.20;;
66619;SDS011;53484;51.356;6.732;2023-02-28T09:29:32;5.60;;;2.80;;
66619;SDS011;53484;51.356;6.732;2023-02-28T09:31:58;8.20;;;2.20;;
66619;SDS011;53484;51.356;6.732;2023-02-28T09:34:25;4.93;;;2.40;;
66619;SDS011;53484;51.356;6.732;2023-02-28T09:36:51;6.93;;;2.30;;
66619;SDS011;53484;51.356;6.732;2023-02-28T09:39:21;5.22;;;2.35;;
66619;SDS011;53484;51.356;6.732;2023-02-28T09:41:48;6.87;;;2.13;;
66619;SDS011;53484;51.356;6.732;2023-02-28T09:44:17;3.63;;;1.70;;
66619;SDS011;53484;51.356;6.732;2023-02-28T09:46:46;4.13;;;1.90;;
66619;SDS011;53484;51.356;6.732;2023-02-28T09:49:14;5.45;;;2.30;;
66619;SDS011;53484;51.356;6.732;2023-02-28T09:51:46;4.22;;;1.98;;
66619;SDS011;53484;51.356;6.732;2023-02-28T09:54:16;6.07;;;2.70;;
66619;SDS011;53484;51.356;6.732;2023-02-28T09:56:45;9.20;;;3.38;;
66619;SDS011;53484;51.356;6.732;2023-02-28T09:59:14;5.93;;;2.88;;
66619;SDS011;53484;51.356;6.732;2023-02-28T10:01:47;4.38;;;2.33;;
66619;SDS011;53484;51.356;6.732;2023-02-28T10:04:16;5.07;;;2.17;;
66619;SDS011;53484;51.356;6.732;2023-02-28T10:06:45;4.97;;;2.50;;
66619;SDS011;53484;51.356;6.732;2023-02-28T10:09:13;4.45;;;1.80;;
66619;SDS011;53484;51.356;6.732;2023-02-28T10:11:41;5.72;;;2.45;;
66619;SDS011;53484;51.356;6.732;2023-02-28T10:14:13;5.50;;;2.10;;
66619;SDS011;53484;51.356;6.732;2023-02-28T10:16:41;5.30;;;1.80;;
66619;SDS011;53484;51.356;6.732;2023-02-28T10:19:11;4.33;;;1.90;;
66619;SDS011;53484;51.356;6.732;2023-02-28T10:21:41;4.65;;;2.00;;
66619;SDS011;53484;51.356;6.732;2023-02-28T10:24:13;6.22;;;2.33;;
66619;SDS011;53484;51.356;6.732;2023-02-28T10:26:43;5.22;;;2.40;;
66619;SDS011;53484;51.356;6.732;2023-02-28T10:29:09;4.97;;;2.17;;
66619;SDS011;53484;51.356;6.732;2023-02-28T10:31:38;3.50;;;1.40;;
66619;SDS011;53484;51.356;6.732;2023-02-28T10:34:05;6.00;;;1.90;;
66619;SDS011;53484;51.356;6.732;2023-02-28T10:36:31;4.00;;;1.80;;
66619;SDS011;53484;51.356;6.732;2023-02-28T10:38:57;3.75;;;1.60;;
66619;SDS011;53484;51.356;6.732;2023-02-28T10:41:28;5.60;;;1.95;;
66619;SDS011;53484;51.356;6.732;2023-02-28T10:46:37;4.15;;;1.77;;
66619;SDS011;53484;51.356;6.732;2023-02-28T10:49:06;5.25;;;2.00;;
66619;SDS011;53484;51.356;6.732;2023-02-28T10:51:38;3.92;;;1.65;;
66619;SDS011;53484;51.356;6.732;2023-02-28T10:54:05;4.97;;;1.80;;
66619;SDS011;53484;51.356;6.732;2023-02-28T10:56:31;5.07;;;1.73;;
66619;SDS011;53484;51.356;6.732;2023-02-28T10:58:59;3.78;;;1.45;;
66619;SDS011;53484;51.356;6.732;2023-02-28T11:01:34;6.07;;;2.25;;
66619;SDS011;53484;51.356;6.732;2023-02-28T11:37:14;6.47;;;3.40;;
66619;SDS011;53484;51.356;6.732;2023-02-28T11:39:41;6.47;;;4.13;;
66619;SDS011;53484;51.356;6.732;2023-02-28T11:42:11;7.63;;;3.75;;
66619;SDS011;53484;51.356;6.732;2023-02-28T11:44:45;4.38;;;2.65;;
66619;SDS011;53484;51.356;6.732;2023-02-28T11:47:17;4.75;;;3.05;;
66619;SDS011;53484;51.356;6.732;2023-02-28T11:49:47;4.43;;;2.80;;
66619;SDS011;53484;51.356;6.732;2023-02-28T11:52:24;5.28;;;3.00;;
66619;SDS011;53484;51.356;6.732;2023-02-28T11:55:00;4.93;;;2.70;;
66619;SDS011;53484;51.356;6.732;2023-02-28T11:57:33;4.88;;;2.90;;
66619;SDS011;53484;51.356;6.732;2023-02-28T12:00:03;5.97;;;3.30;;
66619;SDS011;53484;51.356;6.732;2023-02-28T12:02:33;6.43;;;3.30;;
66619;SDS011;53484;51.356;6.732;2023-02-28T12:05:08;4.53;;;2.90;;
66619;SDS011;53484;51.356;6.732;2023-02-28T12:07:40;7.05;;;3.28;;
66619;SDS011;53484;51.356;6.732;2023-02-28T12:10:12;6.55;;;2.70;;
66619;SDS011;53484;51.356;6.732;2023-02-28T12:12:43;5.78;;;3.38;;
66619;SDS011;53484;51.356;6.732;2023-02-28T12:18:06;4.50;;;3.00;;
66619;SDS011;53484;51.356;6.732;2023-02-28T12:20:41;6.97;;;3.00;;
66619;SDS011;53484;51.356;6.732;2023-02-28T12:23:16;5.45;;;2.80;;
66619;SDS011;53484;51.356;6.732;2023-02-28T12:25:50;4.95;;;3.10;;
66619;SDS011;53484;51.356;6.732;2023-02-28T12:28:21;5.07;;;3.23;;
66619;SDS011;53484;51.356;6.732;2023-02-28T12:30:50;5.22;;;3.13;;
66619;SDS011;53484;51.356;6.732;2023-02-28T12:33:20;5.35;;;3.53;;
66619;SDS011;53484;51.356;6.732;2023-02-28T12:35:49;5.18;;;3.33;;
66619;SDS011;53484;51.356;6.732;2023-02-28T12:38:18;4.80;;;3.30;;
66619;SDS011;53484;51.356;6.732;2023-02-28T12:40:47;4.53;;;3.40;;
66619;SDS011;53484;51.356;6.732;2023-02-28T12:43:16;5.63;;;3.30;;
66619;SDS011;53484;51.356;6.732;2023-02-28T12:45:45;5.05;;;3.42;;
66619;SDS011;53484;51.356;6.732;2023-02-28T12:48:14;5.28;;;2.70;;
66619;SDS011;53484;51.356;6.732;2023-02-28T12:50:41;3.97;;;2.95;;
66619;SDS011;53484;51.356;6.732;2023-02-28T12:53:08;4.53;;;2.90;;
66619;SDS011;53484;51.356;6.732;2023-02-28T12:55:40;5.68;;;3.58;;
66619;SDS011;53484;51.356;6.732;2023-02-28T12:58:10;4.63;;;3.20;;
66619;SDS011;53484;51.356;6.732;2023-02-28T13:00:38;5.10;;;3.55;;
66619;SDS011;53484;51.356;6.732;2023-02-28T13:03:14;4.35;;;2.80;;
66619;SDS011;53484;51.356;6.732;2023-02-28T13:05:52;5.35;;;3.03;;
66619;SDS011;53484;51.356;6.732;2023-02-28T13:08:33;5.22;;;3.40;;
66619;SDS011;53484;51.356;6.732;2023-02-28T13:11:04;5.40;;;3.40;;
66619;SDS011;53484;51.356;6.732;2023-02-28T13:13:31;7.45;;;2.97;;
66619;SDS011;53484;51.356;6.732;2023-02-28T13:15:58;6.63;;;3.05;;
66619;SDS011;53484;51.356;6.732;2023-02-28T13:18:27;6.43;;;3.13;;
66619;SDS011;53484;51.356;6.732;2023-02-28T13:20:54;4.68;;;3.35;;
66619;SDS011;53484;51.356;6.732;2023-02-28T13:23:40;7.60;;;3.22;;
66619;SDS011;53484;51.356;6.732;2023-02-28T13:26:08;4.85;;;3.20;;
66619;SDS011;53484;51.356;6.732;2023-02-28T13:28:57;4.45;;;3.08;;
66619;SDS011;53484;51.356;6.732;2023-02-28T13:31:26;4.97;;;3.20;;
66619;SDS011;53484;51.356;6.732;2023-02-28T13:34:11;6.18;;;3.15;;
66619;SDS011;53484;51.356;6.732;2023-02-28T13:36:38;4.65;;;2.72;;
66619;SDS011;53484;51.356;6.732;2023-02-28T13:39:20;4.55;;;2.72;;
66619;SDS011;53484;51.356;6.732;2023-02-28T13:41:57;4.60;;;2.78;;
66619;SDS011;53484;51.356;6.732;2023-02-28T13:47:27;5.82;;;3.60;;
66619;SDS011;53484;51.356;6.732;2023-02-28T13:49:55;6.35;;;3.15;;
66619;SDS011;53484;51.356;6.732;2023-02-28T13:52:42;5.72;;;3.47;;
66619;SDS011;53484;51.356;6.732;2023-02-28T13:55:14;5.20;;;3.33;;
66619;SDS011;53484;51.356;6.732;2023-02-28T13:57:49;8.38;;;3.47;;
66619;SDS011;53484;51.356;6.732;2023-02-28T14:00:21;5.10;;;2.83;;
66619;SDS011;53484;51.356;6.732;2023-02-28T14:03:03;7.30;;;3.20;;
66619;SDS011;53484;51.356;6.732;2023-02-28T14:05:32;5.05;;;3.00;;
66619;SDS011;53484;51.356;6.732;2023-02-28T14:08:00;4.85;;;2.90;;
66619;SDS011;53484;51.356;6.732;2023-02-28T14:10:31;3.92;;;2.70;;
66619;SDS011;53484;51.356;6.732;2023-02-28T14:13:00;4.80;;;2.80;;
66619;SDS011;53484;51.356;6.732;2023-02-28T14:15:47;4.88;;;3.03;;
66619;SDS011;53484;51.356;6.732;2023-02-28T14:18:16;6.22;;;3.08;;
66619;SDS011;53484;51.356;6.732;2023-02-28T14:20:43;5.82;;;2.97;;
66619;SDS011;53484;51.356;6.732;2023-02-28T14:23:10;4.60;;;2.60;;
66619;SDS011;53484;51.356;6.732;2023-02-28T14:25:40;8.05;;;3.05;;
66619;SDS011;53484;51.356;6.732;2023-02-28T14:28:14;6.63;;;2.90;;
66619;SDS011;53484;51.356;6.732;2023-02-28T14:33:33;4.93;;;2.70;;
66619;SDS011;53484;51.356;6.732;2023-02-28T14:36:04;8.53;;;2.97;;
66619;SDS011;53484;51.356;6.732;2023-02-28T14:38:33;5.25;;;3.33;;
66619;SDS011;53484;51.356;6.732;2023-02-28T14:41:03;5.35;;;3.10;;
66619;SDS011;53484;51.356;6.732;2023-02-28T14:43:32;4.70;;;2.90;;
66619;SDS011;53484;51.356;6.732;2023-02-28T14:45:59;6.47;;;3.40;;
66619;SDS011;53484;51.356;6.732;2023-02-28T14:48:26;6.03;;;3.30;;
66619;SDS011;53484;51.356;6.732;2023-02-28T14:50:53;6.85;;;3.17;;
66619;SDS011;53484;51.356;6.732;2023-02-28T14:53:21;5.90;;;3.20;;
66619;SDS011;53484;51.356;6.732;2023-02-28T14:55:48;7.10;;;2.72;;
66619;SDS011;53484;51.356;6.732;2023-02-28T14:58:20;6.07;;;3.42;;
66619;SDS011;53484;51.356;6.732;2023-02-28T15:00:49;7.40;;;3.20;;
66619;SDS011;53484;51.356;6.732;2023-02-28T15:03:18;6.40;;;2.90;;
66619;SDS011;53484;51.356;6.732;2023-02-28T15:05:51;6.97;;;3.03;;
66619;SDS011;53484;51.356;6.732;2023-02-28T15:08:17;5.55;;;3.47;;
66619;SDS011;53484;51.356;6.732;2023-02-28T15:10:50;9.88;;;3.78;;
66619;SDS011;53484;51.356;6.732;2023-02-28T15:13:17;6.23;;;3.50;;
66619;SDS011;53484;51.356;6.732;2023-02-28T15:15:45;6.63;;;3.80;;
66619;SDS011;53484;51.356;6.732;2023-02-28T15:18:15;5.57;;;3.42;;
66619;SDS011;53484;51.356;6.732;2023-02-28T15:20:47;7.47;;;3.40;;
66619;SDS011;53484;51.356;6.732;2023-02-28T15:23:14;6.53;;;3.40;;
66619;SDS011;53484;51.356;6.732;2023-02-28T15:25:41;11.40;;;4.00;;
66619;SDS011;53484;51.356;6.732;2023-02-28T15:28:11;6.95;;;4.15;;
66619;SDS011;53484;51.356;6.732;2023-02-28T15:30:39;5.47;;;3.20;;
66619;SDS011;53484;51.356;6.732;2023-02-28T15:33:21;6.57;;;3.80;;
66619;SDS011;53484;51.356;6.732;2023-02-28T15:35:48;5.32;;;3.70;;
66619;SDS011;53484;51.356;6.732;2023-02-28T15:38:16;6.17;;;3.90;;
66619;SDS011;53484;51.356;6.732;2023-02-28T15:40:43;7.43;;;4.10;;
66619;SDS011;53484;51.356;6.732;2023-02-28T15:43:13;4.88;;;3.30;;
66619;SDS011;53484;51.356;6.732;2023-02-28T15:45:41;7.00;;;3.30;;